sensor_id;sensor_type;location;lat;lon;timestamp;P1;durP1;ratioP1;P2;durP2;ratioP2
78614;SDS011;67937;52.488;20.952;2023-08-17T00:00:37;12.40;;;8.40;;
78614;SDS011;67937;52.488;20.952;2023-08-17T00:03:24;9.40;;;8.50;;
78614;SDS011;67937;52.488;20.952;2023-08-17T00:05:52;9.70;;;8.30;;
78614;SDS011;67937;52.488;20.952;2023-08-17T00:08:20;9.30;;;8.00;;
78614;SDS011;67937;52.488;20.952;2023-08-17T00:10:48;9.80;;;8.10;;
78614;SDS011;67937;52.488;20.952;2023-08-17T00:13:16;9.60;;;8.20;;
78614;SDS011;67937;52.488;20.952;2023-08-17T00:15:44;10.40;;;9.10;;
78614;SDS011;67937;52.488;20.952;2023-08-17T00:18:11;9.30;;;8.50;;
78614;SDS011;67937;52.488;20.952;2023-08-17T00:20:39;9.10;;;8.10;;
78614;SDS011;67937;52.488;20.952;2023-08-17T00:23:07;9.60;;;8.70;;
78614;SDS011;67937;52.488;20.952;2023-08-17T00:25:35;11.30;;;10.00;;
78614;SDS011;67937;52.488;20.952;2023-08-17T00:28:03;9.70;;;8.40;;
78614;SDS011;67937;52.488;20.952;2023-08-17T00:30:31;9.80;;;8.60;;
78614;SDS011;67937;52.488;20.952;2023-08-17T00:33:02;11.50;;;9.50;;
78614;SDS011;67937;52.488;20.952;2023-08-17T00:35:31;12.40;;;9.00;;
78614;SDS011;67937;52.488;20.952;2023-08-17T00:37:59;9.80;;;8.40;;
78614;SDS011;67937;52.488;20.952;2023-08-17T00:40:27;10.00;;;8.90;;
78614;SDS011;67937;52.488;20.952;2023-08-17T00:42:55;10.50;;;9.00;;
78614;SDS011;67937;52.488;20.952;2023-08-17T00:45:23;10.70;;;9.60;;
78614;SDS011;67937;52.488;20.952;2023-08-17T00:47:53;11.30;;;8.10;;
78614;SDS011;67937;52.488;20.952;2023-08-17T00:50:26;13.60;;;11.00;;
78614;SDS011;67937;52.488;20.952;2023-08-17T00:52:55;10.10;;;9.10;;
78614;SDS011;67937;52.488;20.952;2023-08-17T00:55:24;9.70;;;8.70;;
78614;SDS011;67937;52.488;20.952;2023-08-17T00:57:52;11.50;;;9.00;;
78614;SDS011;67937;52.488;20.952;2023-08-17T01:00:21;10.00;;;9.00;;
78614;SDS011;67937;52.488;20.952;2023-08-17T01:02:50;9.80;;;8.90;;
78614;SDS011;67937;52.488;20.952;2023-08-17T01:05:19;11.80;;;9.90;;
78614;SDS011;67937;52.488;20.952;2023-08-17T01:07:47;10.40;;;8.70;;
78614;SDS011;67937;52.488;20.952;2023-08-17T01:10:15;12.00;;;9.10;;
78614;SDS011;67937;52.488;20.952;2023-08-17T01:15:24;10.20;;;9.20;;
78614;SDS011;67937;52.488;20.952;2023-08-17T01:18:45;10.60;;;9.10;;
78614;SDS011;67937;52.488;20.952;2023-08-17T01:21:44;10.10;;;9.20;;
78614;SDS011;67937;52.488;20.952;2023-08-17T01:24:19;10.50;;;9.30;;
78614;SDS011;67937;52.488;20.952;2023-08-17T01:26:47;10.20;;;9.20;;
78614;SDS011;67937;52.488;20.952;2023-08-17T01:29:15;11.00;;;9.60;;
78614;SDS011;67937;52.488;20.952;2023-08-17T01:31:48;11.70;;;10.40;;
78614;SDS011;67937;52.488;20.952;2023-08-17T01:34:25;10.80;;;9.70;;
78614;SDS011;67937;52.488;20.952;2023-08-17T01:37:09;10.80;;;9.70;;
78614;SDS011;67937;52.488;20.952;2023-08-17T01:39:49;10.90;;;9.40;;
78614;SDS011;67937;52.488;20.952;2023-08-17T01:42:57;10.20;;;9.20;;
78614;SDS011;67937;52.488;20.952;2023-08-17T01:50:11;11.80;;;9.00;;
78614;SDS011;67937;52.488;20.952;2023-08-17T01:53:55;10.10;;;9.10;;
78614;SDS011;67937;52.488;20.952;2023-08-17T01:57:13;10.90;;;9.50;;
78614;SDS011;67937;52.488;20.952;2023-08-17T01:59:41;12.40;;;10.00;;
78614;SDS011;67937;52.488;20.952;2023-08-17T02:02:09;11.40;;;9.30;;
78614;SDS011;67937;52.488;20.952;2023-08-17T02:04:42;11.10;;;9.50;;
78614;SDS011;67937;52.488;20.952;2023-08-17T02:07:26;12.30;;;10.00;;
78614;SDS011;67937;52.488;20.952;2023-08-17T02:09:54;11.50;;;9.60;;
78614;SDS011;67937;52.488;20.952;2023-08-17T02:12:22;15.20;;;10.60;;
78614;SDS011;67937;52.488;20.952;2023-08-17T02:14:49;12.00;;;9.60;;
78614;SDS011;67937;52.488;20.952;2023-08-17T02:17:17;10.30;;;9.00;;
78614;SDS011;67937;52.488;20.952;2023-08-17T02:19:48;11.20;;;10.10;;
78614;SDS011;67937;52.488;20.952;2023-08-17T02:22:15;12.20;;;9.70;;
78614;SDS011;67937;52.488;20.952;2023-08-17T02:24:43;13.10;;;11.00;;
78614;SDS011;67937;52.488;20.952;2023-08-17T02:27:12;12.80;;;10.00;;
78614;SDS011;67937;52.488;20.952;2023-08-17T02:29:40;10.70;;;9.50;;
78614;SDS011;67937;52.488;20.952;2023-08-17T02:32:08;11.70;;;10.60;;
78614;SDS011;67937;52.488;20.952;2023-08-17T02:34:38;11.00;;;9.80;;
78614;SDS011;67937;52.488;20.952;2023-08-17T02:37:06;11.50;;;9.60;;
78614;SDS011;67937;52.488;20.952;2023-08-17T02:40:44;12.20;;;9.70;;
78614;SDS011;67937;52.488;20.952;2023-08-17T02:43:12;11.40;;;10.00;;
78614;SDS011;67937;52.488;20.952;2023-08-17T02:45:40;12.10;;;9.90;;
78614;SDS011;67937;52.488;20.952;2023-08-17T02:48:08;13.90;;;10.10;;
78614;SDS011;67937;52.488;20.952;2023-08-17T02:50:36;12.40;;;10.20;;
78614;SDS011;67937;52.488;20.952;2023-08-17T02:53:04;11.20;;;9.90;;
78614;SDS011;67937;52.488;20.952;2023-08-17T02:55:32;11.00;;;9.90;;
78614;SDS011;67937;52.488;20.952;2023-08-17T02:58:00;10.50;;;9.40;;
78614;SDS011;67937;52.488;20.952;2023-08-17T03:00:27;17.10;;;10.40;;
78614;SDS011;67937;52.488;20.952;2023-08-17T03:02:55;11.90;;;10.10;;
78614;SDS011;67937;52.488;20.952;2023-08-17T03:05:23;11.40;;;9.50;;
78614;SDS011;67937;52.488;20.952;2023-08-17T03:07:51;12.10;;;10.80;;
78614;SDS011;67937;52.488;20.952;2023-08-17T03:10:19;10.40;;;9.40;;
78614;SDS011;67937;52.488;20.952;2023-08-17T03:12:47;13.10;;;11.40;;
78614;SDS011;67937;52.488;20.952;2023-08-17T03:15:15;13.40;;;10.10;;
78614;SDS011;67937;52.488;20.952;2023-08-17T03:17:43;11.10;;;10.00;;
78614;SDS011;67937;52.488;20.952;2023-08-17T03:20:11;12.60;;;11.30;;
78614;SDS011;67937;52.488;20.952;2023-08-17T03:22:39;15.70;;;10.40;;
78614;SDS011;67937;52.488;20.952;2023-08-17T03:25:07;10.90;;;9.90;;
78614;SDS011;67937;52.488;20.952;2023-08-17T03:27:53;12.50;;;10.30;;
78614;SDS011;67937;52.488;20.952;2023-08-17T03:30:50;12.80;;;10.50;;
78614;SDS011;67937;52.488;20.952;2023-08-17T03:33:24;12.70;;;10.50;;
78614;SDS011;67937;52.488;20.952;2023-08-17T03:36:20;12.90;;;11.10;;
78614;SDS011;67937;52.488;20.952;2023-08-17T03:38:48;11.20;;;10.10;;
78614;SDS011;67937;52.488;20.952;2023-08-17T03:41:18;13.00;;;9.90;;
78614;SDS011;67937;52.488;20.952;2023-08-17T03:48:08;11.80;;;10.30;;
78614;SDS011;67937;52.488;20.952;2023-08-17T03:50:54;11.80;;;10.10;;
78614;SDS011;67937;52.488;20.952;2023-08-17T04:07:36;13.50;;;9.90;;
78614;SDS011;67937;52.488;20.952;2023-08-17T04:10:21;13.60;;;11.00;;
78614;SDS011;67937;52.488;20.952;2023-08-17T04:12:49;11.50;;;10.30;;
78614;SDS011;67937;52.488;20.952;2023-08-17T04:15:18;15.20;;;9.70;;
78614;SDS011;67937;52.488;20.952;2023-08-17T04:17:46;11.90;;;9.90;;
78614;SDS011;67937;52.488;20.952;2023-08-17T04:20:36;11.90;;;9.70;;
78614;SDS011;67937;52.488;20.952;2023-08-17T04:23:06;11.80;;;10.50;;
78614;SDS011;67937;52.488;20.952;2023-08-17T04:25:34;13.10;;;11.70;;
78614;SDS011;67937;52.488;20.952;2023-08-17T04:28:02;12.40;;;9.80;;
78614;SDS011;67937;52.488;20.952;2023-08-17T04:30:31;13.80;;;10.90;;
78614;SDS011;67937;52.488;20.952;2023-08-17T04:32:59;13.70;;;11.90;;
78614;SDS011;67937;52.488;20.952;2023-08-17T04:35:28;11.50;;;10.40;;
78614;SDS011;67937;52.488;20.952;2023-08-17T04:37:56;10.70;;;9.60;;
78614;SDS011;67937;52.488;20.952;2023-08-17T04:40:24;13.50;;;11.30;;
78614;SDS011;67937;52.488;20.952;2023-08-17T04:42:52;14.90;;;11.50;;
78614;SDS011;67937;52.488;20.952;2023-08-17T04:45:20;12.40;;;10.20;;
78614;SDS011;67937;52.488;20.952;2023-08-17T04:47:47;11.00;;;9.90;;
78614;SDS011;67937;52.488;20.952;2023-08-17T04:50:15;13.70;;;12.00;;
78614;SDS011;67937;52.488;20.952;2023-08-17T04:52:44;12.30;;;11.00;;
78614;SDS011;67937;52.488;20.952;2023-08-17T04:55:14;12.10;;;10.20;;
78614;SDS011;67937;52.488;20.952;2023-08-17T04:57:42;12.70;;;11.10;;
78614;SDS011;67937;52.488;20.952;2023-08-17T05:00:10;13.70;;;9.90;;
78614;SDS011;67937;52.488;20.952;2023-08-17T05:02:39;11.50;;;9.90;;
78614;SDS011;67937;52.488;20.952;2023-08-17T05:05:08;14.50;;;11.30;;
78614;SDS011;67937;52.488;20.952;2023-08-17T05:07:37;12.60;;;11.40;;
78614;SDS011;67937;52.488;20.952;2023-08-17T05:10:05;11.90;;;10.70;;
78614;SDS011;67937;52.488;20.952;2023-08-17T05:12:33;15.40;;;10.80;;
78614;SDS011;67937;52.488;20.952;2023-08-17T05:15:01;12.20;;;10.70;;
78614;SDS011;67937;52.488;20.952;2023-08-17T05:17:29;12.90;;;11.30;;
78614;SDS011;67937;52.488;20.952;2023-08-17T05:19:57;12.20;;;10.20;;
78614;SDS011;67937;52.488;20.952;2023-08-17T05:22:25;12.70;;;11.40;;
78614;SDS011;67937;52.488;20.952;2023-08-17T05:24:53;13.60;;;11.90;;
78614;SDS011;67937;52.488;20.952;2023-08-17T05:27:21;12.70;;;11.40;;
78614;SDS011;67937;52.488;20.952;2023-08-17T05:29:48;12.60;;;10.80;;
78614;SDS011;67937;52.488;20.952;2023-08-17T05:32:16;15.90;;;11.90;;
78614;SDS011;67937;52.488;20.952;2023-08-17T05:34:44;12.80;;;11.20;;
78614;SDS011;67937;52.488;20.952;2023-08-17T05:37:12;11.70;;;10.60;;
78614;SDS011;67937;52.488;20.952;2023-08-17T05:39:41;14.60;;;12.20;;
78614;SDS011;67937;52.488;20.952;2023-08-17T05:42:09;12.80;;;10.40;;
78614;SDS011;67937;52.488;20.952;2023-08-17T05:44:36;13.00;;;10.80;;
78614;SDS011;67937;52.488;20.952;2023-08-17T05:47:04;13.90;;;11.00;;
78614;SDS011;67937;52.488;20.952;2023-08-17T05:49:32;17.80;;;12.10;;
78614;SDS011;67937;52.488;20.952;2023-08-17T05:52:00;11.90;;;10.30;;
78614;SDS011;67937;52.488;20.952;2023-08-17T05:54:28;14.00;;;11.20;;
78614;SDS011;67937;52.488;20.952;2023-08-17T05:56:56;11.90;;;10.60;;
78614;SDS011;67937;52.488;20.952;2023-08-17T05:59:24;11.50;;;10.40;;
78614;SDS011;67937;52.488;20.952;2023-08-17T06:01:52;10.70;;;9.60;;
78614;SDS011;67937;52.488;20.952;2023-08-17T06:04:19;13.40;;;10.10;;
78614;SDS011;67937;52.488;20.952;2023-08-17T06:06:48;11.20;;;9.90;;
78614;SDS011;67937;52.488;20.952;2023-08-17T06:09:16;13.80;;;10.90;;
78614;SDS011;67937;52.488;20.952;2023-08-17T06:11:44;11.30;;;9.80;;
78614;SDS011;67937;52.488;20.952;2023-08-17T06:14:11;12.70;;;10.70;;
78614;SDS011;67937;52.488;20.952;2023-08-17T06:16:39;11.10;;;9.90;;
78614;SDS011;67937;52.488;20.952;2023-08-17T06:19:07;11.00;;;9.30;;
78614;SDS011;67937;52.488;20.952;2023-08-17T06:21:35;12.80;;;10.70;;
78614;SDS011;67937;52.488;20.952;2023-08-17T06:24:03;11.10;;;9.70;;
78614;SDS011;67937;52.488;20.952;2023-08-17T06:26:31;13.10;;;10.60;;
78614;SDS011;67937;52.488;20.952;2023-08-17T06:28:59;11.50;;;10.30;;
78614;SDS011;67937;52.488;20.952;2023-08-17T06:31:27;12.90;;;11.10;;
78614;SDS011;67937;52.488;20.952;2023-08-17T06:33:55;14.20;;;9.90;;
78614;SDS011;67937;52.488;20.952;2023-08-17T06:36:23;10.50;;;9.40;;
78614;SDS011;67937;52.488;20.952;2023-08-17T06:38:51;11.20;;;9.80;;
78614;SDS011;67937;52.488;20.952;2023-08-17T06:41:19;10.90;;;9.60;;
78614;SDS011;67937;52.488;20.952;2023-08-17T06:43:47;10.80;;;9.30;;
78614;SDS011;67937;52.488;20.952;2023-08-17T06:46:14;13.10;;;9.90;;
78614;SDS011;67937;52.488;20.952;2023-08-17T06:48:43;12.00;;;10.10;;
78614;SDS011;67937;52.488;20.952;2023-08-17T06:51:11;13.10;;;8.80;;
78614;SDS011;67937;52.488;20.952;2023-08-17T06:53:39;11.40;;;9.00;;
78614;SDS011;67937;52.488;20.952;2023-08-17T06:56:09;10.40;;;9.40;;
78614;SDS011;67937;52.488;20.952;2023-08-17T06:58:38;12.40;;;8.90;;
78614;SDS011;67937;52.488;20.952;2023-08-17T07:01:06;11.60;;;9.40;;
78614;SDS011;67937;52.488;20.952;2023-08-17T07:03:34;10.60;;;9.10;;
78614;SDS011;67937;52.488;20.952;2023-08-17T07:06:02;11.70;;;9.50;;
78614;SDS011;67937;52.488;20.952;2023-08-17T07:08:30;13.10;;;9.60;;
78614;SDS011;67937;52.488;20.952;2023-08-17T07:10:59;11.40;;;9.90;;
78614;SDS011;67937;52.488;20.952;2023-08-17T07:13:27;13.40;;;9.80;;
78614;SDS011;67937;52.488;20.952;2023-08-17T07:15:55;10.00;;;8.90;;
78614;SDS011;67937;52.488;20.952;2023-08-17T07:18:23;12.80;;;9.10;;
78614;SDS011;67937;52.488;20.952;2023-08-17T07:20:51;11.50;;;9.80;;
78614;SDS011;67937;52.488;20.952;2023-08-17T07:23:19;11.70;;;9.50;;
78614;SDS011;67937;52.488;20.952;2023-08-17T07:25:47;16.30;;;10.20;;
78614;SDS011;67937;52.488;20.952;2023-08-17T07:28:15;10.10;;;9.00;;
78614;SDS011;67937;52.488;20.952;2023-08-17T07:30:44;11.50;;;9.60;;
78614;SDS011;67937;52.488;20.952;2023-08-17T07:33:12;12.60;;;8.80;;
78614;SDS011;67937;52.488;20.952;2023-08-17T07:35:40;9.60;;;7.60;;
78614;SDS011;67937;52.488;20.952;2023-08-17T07:38:08;11.30;;;8.20;;
78614;SDS011;67937;52.488;20.952;2023-08-17T07:40:36;11.30;;;9.20;;
78614;SDS011;67937;52.488;20.952;2023-08-17T07:43:04;9.30;;;8.40;;
78614;SDS011;67937;52.488;20.952;2023-08-17T07:45:32;10.40;;;8.10;;
78614;SDS011;67937;52.488;20.952;2023-08-17T07:47:59;11.30;;;8.30;;
78614;SDS011;67937;52.488;20.952;2023-08-17T07:50:27;8.20;;;7.40;;
78614;SDS011;67937;52.488;20.952;2023-08-17T07:52:55;10.90;;;8.70;;
78614;SDS011;67937;52.488;20.952;2023-08-17T07:55:23;11.30;;;8.50;;
78614;SDS011;67937;52.488;20.952;2023-08-17T07:57:53;9.70;;;8.80;;
78614;SDS011;67937;52.488;20.952;2023-08-17T08:00:21;9.00;;;7.10;;
78614;SDS011;67937;52.488;20.952;2023-08-17T08:02:49;9.70;;;7.40;;
78614;SDS011;67937;52.488;20.952;2023-08-17T08:05:17;12.10;;;7.90;;
78614;SDS011;67937;52.488;20.952;2023-08-17T08:07:45;6.60;;;6.00;;
78614;SDS011;67937;52.488;20.952;2023-08-17T08:10:13;7.20;;;6.20;;
78614;SDS011;67937;52.488;20.952;2023-08-17T08:12:41;9.40;;;7.10;;
78614;SDS011;67937;52.488;20.952;2023-08-17T08:15:09;9.10;;;6.80;;
78614;SDS011;67937;52.488;20.952;2023-08-17T08:17:37;8.20;;;6.40;;
78614;SDS011;67937;52.488;20.952;2023-08-17T08:20:05;8.40;;;6.30;;
78614;SDS011;67937;52.488;20.952;2023-08-17T08:22:34;7.50;;;5.70;;
78614;SDS011;67937;52.488;20.952;2023-08-17T08:25:02;7.90;;;5.70;;
78614;SDS011;67937;52.488;20.952;2023-08-17T08:27:30;7.80;;;5.90;;
78614;SDS011;67937;52.488;20.952;2023-08-17T08:29:58;6.60;;;5.50;;
78614;SDS011;67937;52.488;20.952;2023-08-17T08:32:26;8.50;;;6.30;;
78614;SDS011;67937;52.488;20.952;2023-08-17T08:34:54;7.70;;;5.90;;
78614;SDS011;67937;52.488;20.952;2023-08-17T08:37:22;6.90;;;5.60;;
78614;SDS011;67937;52.488;20.952;2023-08-17T08:39:52;8.50;;;5.70;;
78614;SDS011;67937;52.488;20.952;2023-08-17T08:44:51;5.80;;;5.20;;
78614;SDS011;67937;52.488;20.952;2023-08-17T08:47:22;6.50;;;5.60;;
78614;SDS011;67937;52.488;20.952;2023-08-17T08:55:19;6.80;;;6.00;;
78614;SDS011;67937;52.488;20.952;2023-08-17T08:57:51;7.70;;;5.60;;
78614;SDS011;67937;52.488;20.952;2023-08-17T09:00:24;5.80;;;5.30;;
78614;SDS011;67937;52.488;20.952;2023-08-17T09:02:53;5.60;;;5.10;;
78614;SDS011;67937;52.488;20.952;2023-08-17T09:05:23;6.00;;;5.40;;
78614;SDS011;67937;52.488;20.952;2023-08-17T09:07:53;6.00;;;5.00;;
78614;SDS011;67937;52.488;20.952;2023-08-17T09:10:23;7.90;;;5.00;;
78614;SDS011;67937;52.488;20.952;2023-08-17T09:12:53;6.50;;;6.00;;
78614;SDS011;67937;52.488;20.952;2023-08-17T09:15:21;6.20;;;5.10;;
78614;SDS011;67937;52.488;20.952;2023-08-17T09:17:50;6.60;;;5.60;;
78614;SDS011;67937;52.488;20.952;2023-08-17T09:23:19;6.00;;;5.00;;
78614;SDS011;67937;52.488;20.952;2023-08-17T09:25:49;12.00;;;5.90;;
78614;SDS011;67937;52.488;20.952;2023-08-17T09:28:24;6.40;;;5.50;;
78614;SDS011;67937;52.488;20.952;2023-08-17T09:30:56;6.90;;;6.30;;
78614;SDS011;67937;52.488;20.952;2023-08-17T09:33:27;7.60;;;6.90;;
78614;SDS011;67937;52.488;20.952;2023-08-17T09:35:57;10.00;;;6.60;;
78614;SDS011;67937;52.488;20.952;2023-08-17T09:38:26;11.00;;;6.80;;
78614;SDS011;67937;52.488;20.952;2023-08-17T09:40:55;7.20;;;5.40;;
78614;SDS011;67937;52.488;20.952;2023-08-17T09:45:54;6.20;;;5.60;;
78614;SDS011;67937;52.488;20.952;2023-08-17T09:48:22;8.80;;;6.20;;
78614;SDS011;67937;52.488;20.952;2023-08-17T09:50:53;6.90;;;5.80;;
78614;SDS011;67937;52.488;20.952;2023-08-17T09:53:24;7.00;;;6.20;;
78614;SDS011;67937;52.488;20.952;2023-08-17T09:55:52;7.10;;;6.00;;
78614;SDS011;67937;52.488;20.952;2023-08-17T09:58:21;9.40;;;6.10;;
78614;SDS011;67937;52.488;20.952;2023-08-17T10:00:49;7.20;;;6.50;;
78614;SDS011;67937;52.488;20.952;2023-08-17T10:03:18;8.50;;;6.70;;
78614;SDS011;67937;52.488;20.952;2023-08-17T10:06:22;8.20;;;6.80;;
78614;SDS011;67937;52.488;20.952;2023-08-17T10:08:47;9.50;;;6.70;;
78614;SDS011;67937;52.488;20.952;2023-08-17T10:11:18;10.60;;;6.50;;
78614;SDS011;67937;52.488;20.952;2023-08-17T10:13:54;7.30;;;6.50;;
78614;SDS011;67937;52.488;20.952;2023-08-17T10:16:29;11.50;;;7.20;;
78614;SDS011;67937;52.488;20.952;2023-08-17T10:19:12;9.00;;;7.00;;
78614;SDS011;67937;52.488;20.952;2023-08-17T10:24:39;9.40;;;7.10;;
78614;SDS011;67937;52.488;20.952;2023-08-17T10:27:08;6.90;;;6.30;;
78614;SDS011;67937;52.488;20.952;2023-08-17T10:29:38;7.50;;;6.40;;
78614;SDS011;67937;52.488;20.952;2023-08-17T10:32:06;10.20;;;7.30;;
78614;SDS011;67937;52.488;20.952;2023-08-17T10:34:35;7.40;;;6.80;;
78614;SDS011;67937;52.488;20.952;2023-08-17T10:37:05;10.30;;;7.20;;
78614;SDS011;67937;52.488;20.952;2023-08-17T10:39:34;7.30;;;6.50;;
78614;SDS011;67937;52.488;20.952;2023-08-17T10:42:07;8.80;;;7.80;;
78614;SDS011;67937;52.488;20.952;2023-08-17T10:44:39;7.10;;;6.30;;
78614;SDS011;67937;52.488;20.952;2023-08-17T10:47:25;6.70;;;6.10;;
78614;SDS011;67937;52.488;20.952;2023-08-17T10:50:04;9.20;;;6.90;;
78614;SDS011;67937;52.488;20.952;2023-08-17T10:52:41;8.50;;;6.30;;
78614;SDS011;67937;52.488;20.952;2023-08-17T10:55:11;7.60;;;5.90;;
78614;SDS011;67937;52.488;20.952;2023-08-17T10:57:41;8.20;;;6.10;;
78614;SDS011;67937;52.488;20.952;2023-08-17T11:02:56;9.00;;;5.40;;
78614;SDS011;67937;52.488;20.952;2023-08-17T11:13:49;5.00;;;4.50;;
78614;SDS011;67937;52.488;20.952;2023-08-17T11:16:20;7.40;;;5.80;;
78614;SDS011;67937;52.488;20.952;2023-08-17T11:18:49;8.70;;;5.60;;
78614;SDS011;67937;52.488;20.952;2023-08-17T11:21:17;6.60;;;5.30;;
78614;SDS011;67937;52.488;20.952;2023-08-17T11:23:46;5.50;;;5.00;;
78614;SDS011;67937;52.488;20.952;2023-08-17T11:26:15;6.60;;;4.50;;
78614;SDS011;67937;52.488;20.952;2023-08-17T11:28:44;5.30;;;4.60;;
78614;SDS011;67937;52.488;20.952;2023-08-17T11:31:14;4.70;;;4.40;;
78614;SDS011;67937;52.488;20.952;2023-08-17T11:33:43;4.20;;;3.80;;
78614;SDS011;67937;52.488;20.952;2023-08-17T11:36:13;4.50;;;4.10;;
78614;SDS011;67937;52.488;20.952;2023-08-17T11:38:41;5.90;;;4.60;;
78614;SDS011;67937;52.488;20.952;2023-08-17T11:41:11;5.20;;;4.70;;
78614;SDS011;67937;52.488;20.952;2023-08-17T11:43:42;7.50;;;3.80;;
78614;SDS011;67937;52.488;20.952;2023-08-17T11:46:11;4.50;;;4.20;;
78614;SDS011;67937;52.488;20.952;2023-08-17T11:48:39;6.30;;;4.00;;
78614;SDS011;67937;52.488;20.952;2023-08-17T11:51:07;4.30;;;4.00;;
78614;SDS011;67937;52.488;20.952;2023-08-17T11:53:36;4.40;;;4.00;;
78614;SDS011;67937;52.488;20.952;2023-08-17T11:56:05;4.10;;;3.80;;
78614;SDS011;67937;52.488;20.952;2023-08-17T11:58:40;6.10;;;4.40;;
78614;SDS011;67937;52.488;20.952;2023-08-17T12:01:09;4.50;;;4.10;;
78614;SDS011;67937;52.488;20.952;2023-08-17T12:03:38;4.70;;;4.40;;
78614;SDS011;67937;52.488;20.952;2023-08-17T12:06:08;5.90;;;3.60;;
78614;SDS011;67937;52.488;20.952;2023-08-17T12:08:36;4.90;;;3.80;;
78614;SDS011;67937;52.488;20.952;2023-08-17T12:11:05;4.70;;;3.20;;
78614;SDS011;67937;52.488;20.952;2023-08-17T12:13:33;3.50;;;3.20;;
78614;SDS011;67937;52.488;20.952;2023-08-17T12:16:03;6.70;;;3.60;;
78614;SDS011;67937;52.488;20.952;2023-08-17T12:18:32;4.30;;;3.20;;
78614;SDS011;67937;52.488;20.952;2023-08-17T12:21:01;4.50;;;4.00;;
78614;SDS011;67937;52.488;20.952;2023-08-17T12:23:29;4.00;;;3.70;;
78614;SDS011;67937;52.488;20.952;2023-08-17T12:25:57;4.10;;;3.20;;
78614;SDS011;67937;52.488;20.952;2023-08-17T12:28:25;3.20;;;3.00;;
78614;SDS011;67937;52.488;20.952;2023-08-17T12:30:57;3.00;;;2.80;;
78614;SDS011;67937;52.488;20.952;2023-08-17T12:33:29;3.30;;;3.00;;
78614;SDS011;67937;52.488;20.952;2023-08-17T12:35:57;4.30;;;3.20;;
78614;SDS011;67937;52.488;20.952;2023-08-17T12:38:25;4.20;;;2.90;;
78614;SDS011;67937;52.488;20.952;2023-08-17T12:40:53;4.50;;;3.20;;
78614;SDS011;67937;52.488;20.952;2023-08-17T12:43:21;3.30;;;2.70;;
78614;SDS011;67937;52.488;20.952;2023-08-17T12:45:49;3.30;;;3.00;;
78614;SDS011;67937;52.488;20.952;2023-08-17T12:48:17;5.30;;;3.40;;
78614;SDS011;67937;52.488;20.952;2023-08-17T12:50:45;3.50;;;3.10;;
78614;SDS011;67937;52.488;20.952;2023-08-17T12:53:13;7.30;;;3.00;;
78614;SDS011;67937;52.488;20.952;2023-08-17T12:55:41;3.70;;;2.60;;
78614;SDS011;67937;52.488;20.952;2023-08-17T12:58:09;5.50;;;3.80;;
78614;SDS011;67937;52.488;20.952;2023-08-17T13:00:37;3.40;;;3.10;;
78614;SDS011;67937;52.488;20.952;2023-08-17T13:03:05;4.00;;;2.80;;
78614;SDS011;67937;52.488;20.952;2023-08-17T13:05:33;3.10;;;2.90;;
78614;SDS011;67937;52.488;20.952;2023-08-17T13:08:01;2.80;;;2.50;;
78614;SDS011;67937;52.488;20.952;2023-08-17T13:10:29;6.90;;;3.10;;
78614;SDS011;67937;52.488;20.952;2023-08-17T13:12:57;3.70;;;3.40;;
78614;SDS011;67937;52.488;20.952;2023-08-17T13:15:25;3.40;;;3.20;;
78614;SDS011;67937;52.488;20.952;2023-08-17T13:17:53;3.40;;;3.10;;
78614;SDS011;67937;52.488;20.952;2023-08-17T13:20:21;3.10;;;2.90;;
78614;SDS011;67937;52.488;20.952;2023-08-17T13:22:49;5.20;;;2.90;;
78614;SDS011;67937;52.488;20.952;2023-08-17T13:25:17;3.50;;;3.20;;
78614;SDS011;67937;52.488;20.952;2023-08-17T13:27:45;4.60;;;3.40;;
78614;SDS011;67937;52.488;20.952;2023-08-17T13:30:13;3.50;;;3.30;;
78614;SDS011;67937;52.488;20.952;2023-08-17T13:32:41;4.60;;;3.40;;
78614;SDS011;67937;52.488;20.952;2023-08-17T13:35:10;5.50;;;3.30;;
78614;SDS011;67937;52.488;20.952;2023-08-17T13:37:38;4.00;;;3.20;;
78614;SDS011;67937;52.488;20.952;2023-08-17T13:40:06;3.80;;;2.90;;
78614;SDS011;67937;52.488;20.952;2023-08-17T13:42:35;5.60;;;3.30;;
78614;SDS011;67937;52.488;20.952;2023-08-17T13:45:03;7.60;;;4.10;;
78614;SDS011;67937;52.488;20.952;2023-08-17T13:47:31;3.80;;;3.50;;
78614;SDS011;67937;52.488;20.952;2023-08-17T13:49:59;4.10;;;3.30;;
78614;SDS011;67937;52.488;20.952;2023-08-17T13:52:27;4.10;;;3.00;;
78614;SDS011;67937;52.488;20.952;2023-08-17T13:54:55;3.40;;;3.20;;
78614;SDS011;67937;52.488;20.952;2023-08-17T13:57:23;3.50;;;3.20;;
78614;SDS011;67937;52.488;20.952;2023-08-17T13:59:51;3.60;;;2.80;;
78614;SDS011;67937;52.488;20.952;2023-08-17T14:02:19;4.40;;;3.70;;
78614;SDS011;67937;52.488;20.952;2023-08-17T14:04:47;5.40;;;4.00;;
78614;SDS011;67937;52.488;20.952;2023-08-17T14:07:15;4.40;;;4.10;;
78614;SDS011;67937;52.488;20.952;2023-08-17T14:09:43;7.60;;;4.00;;
78614;SDS011;67937;52.488;20.952;2023-08-17T14:12:46;4.70;;;3.90;;
78614;SDS011;67937;52.488;20.952;2023-08-17T14:15:28;4.10;;;3.60;;
78614;SDS011;67937;52.488;20.952;2023-08-17T14:17:56;4.50;;;4.00;;
78614;SDS011;67937;52.488;20.952;2023-08-17T14:20:24;3.80;;;3.50;;
78614;SDS011;67937;52.488;20.952;2023-08-17T14:22:53;6.70;;;3.30;;
78614;SDS011;67937;52.488;20.952;2023-08-17T14:25:21;7.20;;;3.80;;
78614;SDS011;67937;52.488;20.952;2023-08-17T14:27:49;4.10;;;3.70;;
78614;SDS011;67937;52.488;20.952;2023-08-17T14:30:17;5.30;;;3.30;;
78614;SDS011;67937;52.488;20.952;2023-08-17T14:32:45;3.50;;;3.20;;
78614;SDS011;67937;52.488;20.952;2023-08-17T14:35:13;5.10;;;3.70;;
78614;SDS011;67937;52.488;20.952;2023-08-17T14:37:41;3.70;;;3.50;;
78614;SDS011;67937;52.488;20.952;2023-08-17T14:40:08;5.90;;;4.10;;
78614;SDS011;67937;52.488;20.952;2023-08-17T14:42:37;3.40;;;3.10;;
78614;SDS011;67937;52.488;20.952;2023-08-17T14:45:06;3.80;;;3.00;;
78614;SDS011;67937;52.488;20.952;2023-08-17T14:47:34;5.70;;;2.90;;
78614;SDS011;67937;52.488;20.952;2023-08-17T14:50:02;4.60;;;2.90;;
78614;SDS011;67937;52.488;20.952;2023-08-17T14:52:30;5.70;;;3.30;;
78614;SDS011;67937;52.488;20.952;2023-08-17T14:54:58;5.20;;;3.10;;
78614;SDS011;67937;52.488;20.952;2023-08-17T14:57:26;3.40;;;3.10;;
78614;SDS011;67937;52.488;20.952;2023-08-17T14:59:54;4.40;;;3.00;;
78614;SDS011;67937;52.488;20.952;2023-08-17T15:02:22;3.80;;;3.00;;
78614;SDS011;67937;52.488;20.952;2023-08-17T15:04:50;4.40;;;3.20;;
78614;SDS011;67937;52.488;20.952;2023-08-17T15:07:18;5.90;;;3.80;;
78614;SDS011;67937;52.488;20.952;2023-08-17T15:09:46;4.60;;;3.30;;
78614;SDS011;67937;52.488;20.952;2023-08-17T15:12:14;4.40;;;3.40;;
78614;SDS011;67937;52.488;20.952;2023-08-17T15:14:42;8.70;;;3.60;;
78614;SDS011;67937;52.488;20.952;2023-08-17T15:17:10;5.30;;;3.40;;
78614;SDS011;67937;52.488;20.952;2023-08-17T15:19:39;5.00;;;3.30;;
78614;SDS011;67937;52.488;20.952;2023-08-17T15:22:07;14.20;;;4.10;;
78614;SDS011;67937;52.488;20.952;2023-08-17T15:24:35;13.80;;;4.00;;
78614;SDS011;67937;52.488;20.952;2023-08-17T15:27:03;10.40;;;4.40;;
78614;SDS011;67937;52.488;20.952;2023-08-17T15:29:32;3.40;;;3.10;;
78614;SDS011;67937;52.488;20.952;2023-08-17T15:32:00;4.70;;;3.10;;
78614;SDS011;67937;52.488;20.952;2023-08-17T15:34:28;3.90;;;3.00;;
78614;SDS011;67937;52.488;20.952;2023-08-17T15:36:56;4.00;;;3.40;;